createdAt,value
2018-08-09T00:01:49.050Z,67.60
2018-08-09T00:04:19.685Z,67.60
2018-08-09T00:06:49.020Z,67.70
2018-08-09T00:09:19.003Z,67.50
2018-08-09T00:11:49.009Z,67.10
2018-08-09T00:14:19.226Z,67.60
2018-08-09T00:16:49.098Z,67.20
2018-08-09T00:19:19.114Z,67.20
2018-08-09T00:21:49.026Z,67.30
2018-08-09T00:24:19.038Z,67.40
2018-08-09T00:26:49.025Z,68.10
2018-08-09T00:29:19.031Z,68.60
2018-08-09T00:31:49.264Z,67.90
2018-08-09T00:34:19.290Z,68.10
2018-08-09T00:36:49.094Z,68.20
2018-08-09T00:39:23.027Z,68.20
2018-08-09T00:41:52.366Z,68.20
2018-08-09T00:44:21.738Z,68.20
2018-08-09T00:46:51.133Z,68.00
2018-08-09T00:49:20.467Z,68.00
2018-08-09T00:51:49.794Z,68.40
2018-08-09T00:54:19.178Z,68.70
2018-08-09T00:56:49.253Z,69.00
2018-08-09T00:59:19.058Z,69.20
2018-08-09T01:01:49.130Z,69.20
2018-08-09T01:04:19.186Z,69.10
2018-08-09T01:06:49.249Z,68.50
2018-08-09T01:09:19.225Z,69.60
2018-08-09T01:11:49.263Z,69.90
2018-08-09T01:14:19.257Z,69.30
2018-08-09T01:16:49.306Z,69.50
2018-08-09T01:19:19.205Z,69.70
2018-08-09T01:21:49.198Z,69.90
2018-08-09T01:24:19.266Z,70.00
2018-08-09T01:26:49.256Z,70.10
2018-08-09T01:29:19.268Z,70.50
2018-08-09T01:31:49.181Z,70.20
2018-08-09T01:34:19.296Z,70.00
2018-08-09T01:36:49.313Z,70.20
2018-08-09T01:39:19.266Z,70.20
2018-08-09T01:42:06.157Z,70.20
2018-08-09T01:44:35.475Z,70.40
2018-08-09T01:47:04.850Z,70.30
2018-08-09T01:49:34.254Z,70.40
2018-08-09T01:52:03.697Z,70.60
2018-08-09T01:54:33.115Z,70.70
2018-08-09T01:57:02.501Z,70.80
2018-08-09T01:59:31.884Z,70.70
2018-08-09T02:02:01.388Z,71.10
2018-08-09T02:04:30.743Z,71.00
2018-08-09T02:07:00.051Z,70.80
2018-08-09T02:09:34.131Z,70.80
2018-08-09T02:12:04.914Z,71.20
2018-08-09T02:14:34.328Z,71.40
2018-08-09T02:17:03.669Z,71.30
2018-08-09T02:19:32.983Z,71.50
2018-08-09T02:22:02.335Z,71.40
2018-08-09T02:24:31.681Z,71.30
2018-08-09T02:27:01.126Z,71.50
2018-08-09T02:29:30.477Z,71.60
2018-08-09T02:31:59.887Z,71.40
2018-08-09T02:34:29.237Z,71.50
2018-08-09T02:36:58.621Z,71.60
2018-08-09T02:39:28.012Z,71.50
2018-08-09T02:41:57.423Z,71.50
2018-08-09T02:44:27.034Z,71.70
2018-08-09T02:46:56.465Z,71.60
2018-08-09T02:49:25.853Z,71.70
2018-08-09T02:51:55.235Z,71.50
2018-08-09T02:54:24.641Z,71.80
2018-08-09T02:56:53.997Z,71.90
2018-08-09T02:59:23.425Z,71.90
2018-08-09T03:01:52.850Z,71.90
2018-08-09T03:04:22.253Z,72.00
2018-08-09T03:06:51.646Z,72.10
2018-08-09T03:09:21.026Z,72.10
2018-08-09T03:11:50.381Z,72.20
2018-08-09T03:14:19.793Z,72.30
2018-08-09T03:16:49.434Z,72.50
2018-08-09T03:19:19.471Z,72.60
2018-08-09T03:21:49.567Z,72.50
2018-08-09T03:24:19.553Z,72.00
2018-08-09T03:26:49.457Z,72.80
2018-08-09T03:29:19.530Z,72.90
2018-08-09T03:31:49.486Z,73.20
2018-08-09T03:34:19.556Z,73.10
2018-08-09T03:36:49.559Z,73.20
2018-08-09T03:39:19.564Z,73.00
2018-08-09T03:41:49.528Z,73.00
2018-08-09T03:44:19.477Z,73.20
2018-08-09T03:46:49.527Z,72.40
2018-08-09T03:49:19.737Z,72.90
2018-08-09T03:51:49.617Z,72.80
2018-08-09T03:54:19.486Z,73.00
2018-08-09T03:56:49.554Z,74.00
2018-08-09T03:59:19.473Z,73.80
2018-08-09T04:01:49.800Z,73.40
2018-08-09T04:04:19.584Z,73.10
2018-08-09T04:06:49.549Z,73.10
2018-08-09T04:09:19.782Z,73.40
2018-08-09T04:11:49.604Z,73.30
2018-08-09T04:14:20.161Z,73.30
2018-08-09T04:16:52.487Z,73.10
2018-08-09T04:19:21.884Z,73.40
2018-08-09T04:21:51.236Z,73.10
2018-08-09T04:24:20.563Z,74.20
2018-08-09T04:26:50.288Z,73.40
2018-08-09T04:29:19.672Z,73.10
2018-08-09T04:31:49.578Z,72.90
2018-08-09T04:34:19.918Z,72.80
2018-08-09T04:36:49.576Z,73.30
2018-08-09T04:39:19.597Z,72.20
2018-08-09T04:41:49.682Z,72.10
2018-08-09T04:44:19.537Z,72.20
2018-08-09T04:46:49.674Z,72.00
2018-08-09T04:49:19.669Z,72.20
2018-08-09T04:51:49.649Z,71.80
2018-08-09T04:54:19.716Z,72.40
2018-08-09T04:56:49.640Z,72.60
2018-08-09T04:59:19.626Z,72.90
2018-08-09T05:01:49.754Z,72.20
2018-08-09T05:04:19.809Z,72.20
2018-08-09T05:06:49.703Z,71.10
2018-08-09T05:09:19.575Z,71.20
2018-08-09T05:11:49.718Z,71.20
2018-08-09T05:14:19.630Z,71.10
2018-08-09T05:16:49.597Z,70.60
2018-08-09T05:19:19.717Z,70.10
2018-08-09T05:21:49.670Z,69.90
2018-08-09T05:24:19.660Z,69.10
2018-08-09T05:26:50.015Z,69.20
2018-08-09T05:29:19.720Z,69.20
2018-08-09T05:31:49.709Z,68.20
2018-08-09T05:34:19.730Z,69.50
2018-08-09T05:36:49.770Z,67.30
2018-08-09T05:39:19.800Z,66.80
2018-08-09T05:41:49.822Z,67.70
2018-08-09T05:44:19.765Z,66.80
2018-08-09T05:46:49.767Z,67.30
2018-08-09T05:49:19.757Z,66.00
2018-08-09T05:51:49.785Z,66.20
2018-08-09T05:54:26.034Z,65.40
2018-08-09T05:56:55.349Z,65.30
2018-08-09T05:59:24.642Z,64.70
2018-08-09T06:01:53.994Z,64.30
2018-08-09T06:04:23.350Z,64.10
2018-08-09T06:06:52.700Z,64.00
2018-08-09T06:09:22.035Z,63.70
2018-08-09T06:11:51.598Z,63.50
2018-08-09T06:14:20.943Z,63.20
2018-08-09T06:16:50.290Z,63.10
2018-08-09T06:19:19.801Z,63.00
2018-08-09T06:21:49.705Z,62.90
2018-08-09T06:24:19.853Z,62.90
2018-08-09T06:26:49.837Z,62.30
2018-08-09T06:29:19.721Z,61.60
2018-08-09T06:31:49.782Z,61.80
2018-08-09T06:34:20.265Z,61.90
2018-08-09T06:36:49.769Z,61.80
2018-08-09T06:39:19.873Z,61.80
2018-08-09T06:41:49.894Z,61.50
2018-08-09T06:44:19.807Z,61.80
2018-08-09T06:46:49.887Z,61.40
2018-08-09T06:49:20.007Z,60.60
2018-08-09T06:51:49.812Z,60.00
2018-08-09T06:54:19.866Z,59.80
2018-08-09T06:56:50.406Z,59.50
2018-08-09T06:59:19.878Z,58.90
2018-08-09T07:01:50.084Z,58.40
2018-08-09T07:04:19.824Z,58.00
2018-08-09T07:06:49.854Z,58.50
2018-08-09T07:09:19.922Z,57.90
2018-08-09T07:11:50.011Z,57.10
2018-08-09T07:14:19.988Z,56.70
2018-08-09T07:16:49.895Z,56.80
2018-08-09T07:19:19.885Z,55.30
2018-08-09T07:21:49.972Z,54.90
2018-08-09T07:24:20.088Z,55.00
2018-08-09T07:26:50.043Z,54.70
2018-08-09T07:29:19.843Z,54.80
2018-08-09T07:31:49.896Z,54.50
2018-08-09T07:34:19.945Z,53.60
2018-08-09T07:36:49.907Z,53.60
2018-08-09T07:39:20.077Z,53.80
2018-08-09T07:41:49.898Z,53.90
2018-08-09T07:44:20.036Z,53.90
2018-08-09T07:46:50.265Z,53.60
2018-08-09T07:49:19.948Z,53.30
2018-08-09T07:51:49.941Z,53.50
2018-08-09T07:54:20.008Z,52.90
2018-08-09T07:56:49.920Z,53.00
2018-08-09T07:59:19.978Z,52.80
2018-08-09T08:01:50.074Z,53.80
2018-08-09T08:04:19.983Z,52.80
2018-08-09T08:06:50.131Z,52.20
2018-08-09T08:09:20.511Z,52.20
2018-08-09T08:11:50.007Z,51.90
2018-08-09T08:14:20.202Z,52.00
2018-08-09T08:16:51.842Z,51.90
2018-08-09T08:19:21.546Z,50.80
2018-08-09T08:21:51.562Z,49.80
2018-08-09T08:24:20.931Z,49.50
2018-08-09T08:26:50.437Z,49.20
2018-08-09T08:29:20.203Z,49.40
2018-08-09T08:31:50.628Z,48.90
2018-08-09T08:34:20.009Z,49.00
2018-08-09T08:36:50.061Z,47.80
2018-08-09T08:39:20.163Z,48.30
2018-08-09T08:41:50.376Z,48.40
2018-08-09T08:44:20.060Z,48.30
2018-08-09T08:46:50.043Z,48.30
2018-08-09T08:49:20.094Z,47.90
2018-08-09T08:51:50.098Z,47.30
2018-08-09T08:54:20.261Z,46.70
2018-08-09T08:56:50.058Z,45.70
2018-08-09T08:59:20.099Z,45.10
2018-08-09T09:01:50.030Z,45.20
2018-08-09T09:04:20.248Z,45.00
2018-08-09T09:06:50.084Z,44.70
2018-08-09T09:09:20.108Z,44.50
2018-08-09T09:11:50.157Z,44.10
2018-08-09T09:14:20.377Z,44.40
2018-08-09T09:16:50.148Z,44.70
2018-08-09T09:19:20.167Z,45.20
2018-08-09T09:21:50.085Z,45.30
2018-08-09T09:24:20.114Z,44.60
2018-08-09T09:26:50.235Z,45.20
2018-08-09T09:29:20.143Z,45.70
2018-08-09T09:31:50.219Z,45.80
2018-08-09T09:34:20.129Z,45.60
2018-08-09T09:36:50.300Z,45.50
2018-08-09T09:39:20.143Z,44.80
2018-08-09T09:41:50.214Z,42.80
2018-08-09T09:44:20.122Z,43.10
2018-08-09T09:46:50.195Z,42.40
2018-08-09T09:49:20.302Z,41.70
2018-08-09T09:51:50.178Z,41.30
2018-08-09T09:54:20.228Z,40.90
2018-08-09T09:56:50.317Z,40.20
2018-08-09T09:59:20.218Z,40.60
2018-08-09T10:01:50.312Z,40.50
2018-08-09T10:04:20.253Z,40.20
2018-08-09T10:06:50.199Z,40.70
2018-08-09T10:09:20.217Z,40.90
2018-08-09T10:11:50.295Z,41.40
2018-08-09T10:14:20.246Z,42.10
2018-08-09T10:16:50.243Z,42.70
2018-08-09T10:19:20.228Z,43.50
2018-08-09T10:21:50.305Z,44.70
2018-08-09T10:24:20.301Z,45.00
2018-08-09T10:26:50.316Z,45.80
2018-08-09T10:29:20.317Z,45.60
2018-08-09T10:31:50.231Z,45.50
2018-08-09T10:34:20.332Z,46.10
2018-08-09T10:36:50.463Z,47.00
2018-08-09T10:39:20.359Z,47.70
2018-08-09T10:41:50.375Z,47.10
2018-08-09T10:44:20.592Z,49.70
2018-08-09T10:46:50.324Z,50.10
2018-08-09T10:49:20.423Z,50.20
2018-08-09T10:51:50.361Z,51.60
2018-08-09T10:54:20.355Z,52.80
2018-08-09T10:56:50.560Z,53.90
2018-08-09T10:59:20.802Z,54.50
2018-08-09T11:01:50.364Z,55.50
2018-08-09T11:04:20.461Z,56.70
2018-08-09T11:06:50.383Z,57.10
2018-08-09T11:09:20.450Z,57.60
2018-08-09T11:11:50.495Z,58.20
2018-08-09T11:14:20.467Z,57.50
2018-08-09T11:16:50.477Z,57.20
2018-08-09T11:19:20.341Z,57.00
2018-08-09T11:21:50.388Z,56.60
2018-08-09T11:24:20.382Z,56.60
2018-08-09T11:26:50.498Z,56.20
2018-08-09T11:29:20.465Z,56.00
2018-08-09T11:31:50.497Z,55.50
2018-08-09T11:34:20.507Z,55.30
2018-08-09T11:36:50.555Z,55.60
2018-08-09T11:39:20.938Z,56.00
2018-08-09T11:41:50.531Z,56.80
2018-08-09T11:44:20.454Z,56.80
2018-08-09T11:46:50.412Z,57.50
2018-08-09T11:49:20.522Z,57.10
2018-08-09T11:51:50.953Z,56.90
2018-08-09T11:54:20.453Z,56.20
2018-08-09T11:56:50.571Z,56.10
2018-08-09T11:59:20.519Z,55.10
2018-08-09T12:01:50.822Z,54.90
2018-08-09T12:04:20.416Z,54.70
2018-08-09T12:06:50.534Z,54.60
2018-08-09T12:09:20.535Z,54.20
2018-08-09T12:11:50.641Z,54.30
2018-08-09T12:14:20.489Z,53.40
2018-08-09T12:16:50.631Z,53.00
2018-08-09T12:19:20.540Z,53.70
2018-08-09T12:21:50.769Z,53.50
2018-08-09T12:24:20.658Z,53.70
2018-08-09T12:26:50.771Z,53.80
2018-08-09T12:29:20.579Z,53.30
2018-08-09T12:31:50.699Z,53.90
2018-08-09T12:37:01.196Z,53.30
2018-08-09T12:39:30.534Z,53.10
2018-08-09T12:41:59.923Z,52.90
2018-08-09T12:44:29.220Z,53.00
2018-08-09T12:46:58.541Z,52.00
2018-08-09T12:49:27.970Z,51.20
2018-08-09T12:51:58.065Z,50.40
2018-08-09T12:54:27.381Z,50.70
2018-08-09T12:56:56.707Z,50.00
2018-08-09T12:59:26.319Z,50.10
2018-08-09T13:01:55.722Z,49.70
2018-08-09T13:04:25.527Z,48.70
2018-08-09T13:06:55.270Z,49.10
2018-08-09T13:09:24.588Z,48.80
2018-08-09T13:11:54.233Z,49.70
2018-08-09T13:14:23.649Z,49.70
2018-08-09T13:16:53.014Z,49.70
2018-08-09T13:19:22.361Z,50.00
2018-08-09T13:21:51.735Z,49.80
2018-08-09T13:24:21.441Z,50.30
2018-08-09T13:26:51.032Z,50.10
2018-08-09T13:29:20.772Z,50.00
2018-08-09T13:31:50.818Z,50.10
2018-08-09T13:34:20.866Z,50.00
2018-08-09T13:36:50.882Z,49.90
2018-08-09T13:39:20.845Z,49.70
2018-08-09T13:41:50.912Z,49.20
2018-08-09T13:44:20.755Z,48.80
2018-08-09T13:46:50.769Z,49.30
2018-08-09T13:49:20.806Z,48.60
2018-08-09T13:51:50.844Z,48.60
2018-08-09T13:54:22.190Z,48.50
2018-08-09T13:56:51.636Z,47.80
2018-08-09T13:59:20.936Z,47.80
2018-08-09T14:01:51.101Z,47.40
2018-08-09T14:04:21.056Z,48.10
2018-08-09T14:06:50.899Z,48.20
2018-08-09T14:09:20.925Z,48.10
2018-08-09T14:11:50.975Z,48.10
2018-08-09T14:14:20.836Z,47.80
2018-08-09T14:16:50.918Z,47.00
2018-08-09T14:19:20.802Z,47.40
2018-08-09T14:21:51.033Z,47.00
2018-08-09T14:24:21.199Z,46.70
2018-08-09T14:26:50.999Z,46.60
2018-08-09T14:29:21.031Z,46.70
2018-08-09T14:31:50.873Z,46.60
2018-08-09T14:34:20.914Z,45.50
2018-08-09T14:36:50.896Z,45.90
2018-08-09T14:39:21.034Z,46.40
2018-08-09T14:41:51.203Z,46.50
2018-08-09T14:44:21.058Z,46.40
2018-08-09T14:46:51.047Z,46.00
2018-08-09T14:49:20.849Z,46.00
2018-08-09T14:51:50.995Z,46.20
2018-08-09T14:54:21.032Z,46.10
2018-08-09T14:56:51.022Z,46.00
2018-08-09T14:59:21.321Z,46.30
2018-08-09T15:01:51.012Z,46.90
2018-08-09T15:04:20.929Z,46.30
2018-08-09T15:06:50.969Z,46.30
2018-08-09T15:09:20.984Z,45.90
2018-08-09T15:11:51.107Z,46.00
2018-08-09T15:14:21.050Z,46.60
2018-08-09T15:16:51.054Z,46.40
2018-08-09T15:19:21.041Z,46.30
2018-08-09T15:21:50.986Z,46.50
2018-08-09T15:24:21.044Z,46.60
2018-08-09T15:26:51.223Z,46.40
2018-08-09T15:29:21.220Z,46.30
2018-08-09T15:31:50.981Z,46.20
2018-08-09T15:34:21.070Z,46.40
2018-08-09T15:36:51.139Z,46.50
2018-08-09T15:39:21.289Z,46.70
2018-08-09T15:41:51.104Z,46.40
2018-08-09T15:44:21.124Z,46.10
2018-08-09T15:46:51.248Z,46.00
2018-08-09T15:49:22.185Z,46.10
2018-08-09T15:51:51.566Z,46.20
2018-08-09T15:54:21.179Z,46.00
2018-08-09T15:56:51.385Z,46.30
2018-08-09T15:59:21.206Z,46.20
2018-08-09T16:01:51.169Z,46.40
2018-08-09T16:04:21.131Z,46.50
2018-08-09T16:06:51.265Z,46.70
2018-08-09T16:09:21.210Z,46.60
2018-08-09T16:11:51.412Z,46.80
2018-08-09T16:14:21.217Z,46.60
2018-08-09T16:16:51.201Z,47.50
2018-08-09T16:19:21.240Z,47.80
2018-08-09T16:21:51.497Z,48.00
2018-08-09T16:24:21.166Z,48.00
2018-08-09T16:26:51.172Z,48.30
2018-08-09T16:29:21.502Z,48.40
2018-08-09T16:31:51.289Z,48.50
2018-08-09T16:34:21.207Z,48.60
2018-08-09T16:36:51.264Z,48.50
2018-08-09T16:39:21.205Z,49.20
2018-08-09T16:41:51.309Z,48.70
2018-08-09T16:44:21.288Z,48.90
2018-08-09T16:46:51.500Z,49.60
2018-08-09T16:49:21.263Z,49.00
2018-08-09T16:51:51.473Z,49.70
2018-08-09T16:54:21.315Z,49.20
2018-08-09T16:56:51.258Z,49.20
2018-08-09T16:59:21.214Z,49.30
2018-08-09T17:01:51.344Z,49.30
2018-08-09T17:04:21.329Z,49.40
2018-08-09T17:06:51.240Z,49.50
2018-08-09T17:09:21.381Z,49.50
2018-08-09T17:11:51.506Z,49.30
2018-08-09T17:14:22.525Z,50.70
2018-08-09T17:16:51.965Z,53.80
2018-08-09T17:19:21.334Z,58.00
2018-08-09T17:21:51.567Z,65.00
2018-08-09T17:24:22.677Z,68.20
2018-08-09T17:26:52.333Z,69.20
2018-08-09T17:29:21.705Z,70.00
2018-08-09T17:31:51.427Z,70.80
2018-08-09T17:34:21.361Z,71.10
2018-08-09T17:36:51.355Z,71.50
2018-08-09T17:39:21.362Z,71.60
2018-08-09T17:41:52.004Z,72.20
2018-08-09T17:44:21.423Z,72.80
2018-08-09T17:46:51.401Z,72.50
2018-08-09T17:49:21.384Z,72.90
2018-08-09T17:51:51.466Z,73.40
2018-08-09T17:54:21.465Z,73.60
2018-08-09T17:56:51.684Z,73.80
2018-08-09T17:59:21.493Z,73.90
2018-08-09T18:01:51.459Z,73.60
2018-08-09T18:04:21.557Z,75.00
2018-08-09T18:06:51.437Z,74.90
2018-08-09T18:09:21.492Z,75.30
2018-08-09T18:11:51.421Z,76.60
2018-08-09T18:14:21.443Z,76.30
2018-08-09T18:16:51.509Z,76.10
2018-08-09T18:19:21.531Z,75.60
2018-08-09T18:21:51.410Z,76.40
2018-08-09T18:24:21.501Z,75.30
2018-08-09T18:26:51.453Z,75.30
2018-08-09T18:29:21.455Z,75.20
2018-08-09T18:38:43.979Z,74.20
2018-08-09T18:41:13.373Z,74.00
2018-08-09T18:43:42.761Z,74.20
2018-08-09T18:46:12.173Z,74.30
2018-08-09T18:48:41.590Z,73.90
2018-08-09T18:51:11.028Z,73.60
2018-08-09T18:53:40.495Z,74.20
2018-08-09T18:56:10.334Z,73.10
2018-08-09T18:58:39.765Z,73.70
2018-08-09T19:01:09.576Z,72.80
2018-08-09T19:03:39.075Z,72.30
2018-08-09T19:06:08.466Z,72.40
2018-08-09T19:08:37.825Z,71.60
2018-08-09T19:11:07.290Z,71.20
2018-08-09T19:13:36.708Z,71.10
2018-08-09T19:16:06.456Z,71.00
2018-08-09T19:18:35.838Z,71.10
2018-08-09T19:21:05.437Z,70.90
2018-08-09T19:23:34.924Z,72.00
2018-08-09T19:26:04.487Z,71.00
2018-08-09T19:28:39.117Z,71.00
2018-08-09T19:31:09.546Z,70.90
2018-08-09T19:33:38.985Z,71.00
2018-08-09T19:36:08.763Z,70.90
2018-08-09T19:38:38.130Z,71.10
2018-08-09T19:41:07.792Z,71.10
2018-08-09T19:43:37.270Z,71.50
2018-08-09T19:46:08.319Z,71.20
2018-08-09T19:48:38.047Z,71.20
2018-08-09T19:51:07.527Z,71.40
2018-08-09T19:53:36.903Z,71.40
2018-08-09T19:56:06.304Z,71.30
2018-08-09T19:58:35.698Z,72.10
2018-08-09T20:01:05.739Z,71.50
2018-08-09T20:03:35.245Z,71.50
2018-08-09T20:06:05.677Z,71.50
2018-08-09T20:08:36.227Z,71.60
2018-08-09T20:11:07.891Z,71.80
2018-08-09T20:13:37.330Z,71.80
2018-08-09T20:16:06.789Z,72.00
2018-08-09T20:18:36.155Z,72.20
2018-08-09T20:21:05.545Z,72.30
2018-08-09T20:23:34.938Z,72.40
2018-08-09T20:26:04.327Z,72.40
2018-08-09T20:28:33.683Z,72.40
2018-08-09T20:31:03.077Z,72.50
2018-08-09T20:33:32.488Z,72.70
2018-08-09T20:36:01.854Z,72.70
2018-08-09T20:38:31.313Z,72.90
2018-08-09T20:41:00.676Z,73.00
2018-08-09T20:43:30.117Z,73.00
2018-08-09T20:45:59.538Z,73.40
2018-08-09T20:48:28.989Z,73.10
2018-08-09T20:51:03.370Z,73.30
2018-08-09T20:53:32.819Z,73.20
2018-08-09T20:56:02.205Z,73.30
2018-08-09T20:58:31.563Z,73.10
2018-08-09T21:01:01.046Z,73.00
2018-08-09T21:03:30.456Z,73.50
2018-08-09T21:05:59.826Z,73.40
2018-08-09T21:08:29.407Z,73.30
2018-08-09T21:10:58.804Z,73.40
2018-08-09T21:13:28.224Z,73.50
2018-08-09T21:15:57.579Z,73.90
2018-08-09T21:18:26.932Z,73.70
2018-08-09T21:20:56.346Z,74.10
2018-08-09T21:23:25.782Z,74.00
2018-08-09T21:25:55.114Z,73.80
2018-08-09T21:28:24.508Z,74.10
2018-08-09T21:30:53.881Z,74.30
2018-08-09T21:33:23.214Z,74.10
2018-08-09T21:35:53.134Z,74.20
2018-08-09T21:38:23.069Z,74.10
2018-08-09T21:40:53.057Z,74.10
2018-08-09T21:43:23.048Z,74.30
2018-08-09T21:45:53.064Z,74.10
2018-08-09T21:48:23.134Z,74.50
2018-08-09T21:50:53.190Z,74.60
2018-08-09T21:53:23.447Z,74.80
2018-08-09T21:55:53.265Z,74.60
2018-08-09T21:58:23.131Z,74.90
2018-08-09T22:00:57.886Z,74.50
2018-08-09T22:03:30.546Z,74.50
2018-08-09T22:07:03.407Z,74.50
2018-08-09T22:09:37.942Z,74.60
2018-08-09T22:12:12.364Z,74.60
2018-08-09T22:14:47.117Z,74.30
2018-08-09T22:17:21.530Z,74.30
2018-08-09T22:19:56.093Z,74.00
2018-08-09T22:22:27.769Z,74.00
2018-08-09T22:24:57.129Z,74.20
2018-08-09T22:27:26.474Z,74.40
2018-08-09T22:29:55.844Z,74.20
2018-08-09T22:32:25.180Z,74.00
2018-08-09T22:34:54.544Z,74.10
2018-08-09T22:37:24.272Z,73.80
2018-08-09T22:39:53.563Z,73.90
2018-08-09T22:42:23.323Z,73.50
2018-08-09T22:44:53.504Z,72.70
2018-08-09T22:47:23.277Z,72.20
2018-08-09T22:49:53.310Z,72.00
2018-08-09T22:52:23.205Z,71.90
2018-08-09T22:54:53.818Z,71.40
2018-08-09T22:57:23.290Z,71.00
2018-08-09T22:59:53.262Z,70.90
2018-08-09T23:02:23.771Z,70.80
2018-08-09T23:04:53.250Z,70.60
2018-08-09T23:07:23.507Z,69.90
2018-08-09T23:09:53.405Z,69.80
2018-08-09T23:12:23.427Z,69.90
2018-08-09T23:14:53.350Z,69.90
2018-08-09T23:17:23.346Z,70.30
2018-08-09T23:19:53.699Z,70.40
2018-08-09T23:22:26.584Z,70.90
2018-08-09T23:24:55.975Z,70.90
2018-08-09T23:27:25.329Z,71.00
2018-08-09T23:29:55.060Z,71.20
2018-08-09T23:32:24.447Z,71.00
2018-08-09T23:34:53.845Z,70.40
2018-08-09T23:37:23.394Z,70.60
2018-08-09T23:39:53.393Z,70.20
2018-08-09T23:42:23.439Z,70.20
2018-08-09T23:44:53.446Z,70.30
2018-08-09T23:47:23.479Z,70.20
2018-08-09T23:49:53.626Z,70.10
2018-08-09T23:52:23.521Z,70.00
2018-08-09T23:54:53.633Z,70.00
2018-08-09T23:57:23.476Z,70.20
2018-08-09T23:59:53.882Z,70.00
